Time;durP1;ratioP1;P1;durP2;ratioP2;P2;SDS_P1;SDS_P2;PMS_P1;PMS_P2;Temp;Humidity;BMP_temperature;BMP_pressure;BME280_temperature;BME280_humidity;BME280_pressure;Samples;Min_cycle;Max_cycle;Signal;HPM_P1;HPM_P2
2024/01/13 00:01:52;;;;;;;5.35;2.17;;;4.00;99.90;;;;;;5027455;28;20029;-71
2024/01/13 00:04:18;;;;;;;3.72;2.05;;;4.00;99.90;;;;;;5005491;28;20042;-73
2024/01/13 00:06:43;;;;;;;4.07;2.28;;;4.00;99.90;;;;;;5007928;28;20438;-72
2024/01/13 00:09:10;;;;;;;4.93;2.42;;;4.10;99.90;;;;;;5027639;28;20045;-72
2024/01/13 00:11:35;;;;;;;5.45;2.80;;;4.00;99.90;;;;;;5027836;28;20041;-71
2024/01/13 00:14:01;;;;;;;6.53;2.72;;;4.00;99.90;;;;;;5026061;28;20045;-72
2024/01/13 00:16:27;;;;;;;6.60;2.83;;;4.00;99.90;;;;;;5025151;28;20037;-72
2024/01/13 00:18:52;;;;;;;8.57;3.30;;;4.00;99.90;;;;;;5008600;28;20117;-72
2024/01/13 00:21:18;;;;;;;6.45;2.92;;;4.00;99.90;;;;;;5007368;28;20030;-71
2024/01/13 00:23:43;;;;;;;5.10;2.70;;;4.10;99.90;;;;;;5026211;28;20044;-72
2024/01/13 00:26:09;;;;;;;4.78;2.97;;;4.10;99.90;;;;;;5026290;28;20038;-72
2024/01/13 00:28:35;;;;;;;14.95;3.83;;;4.00;99.90;;;;;;5027475;28;20140;-72
2024/01/13 00:31:00;;;;;;;7.57;2.83;;;4.10;99.90;;;;;;5024638;28;20037;-71
2024/01/13 00:33:26;;;;;;;5.30;2.80;;;4.00;99.90;;;;;;5014924;28;20048;-73
2024/01/13 00:35:52;;;;;;;8.02;3.17;;;4.00;99.90;;;;;;5014505;28;20498;-72
2024/01/13 00:38:17;;;;;;;7.75;2.95;;;4.00;99.90;;;;;;5027510;28;20032;-71
2024/01/13 00:40:44;;;;;;;7.72;3.38;;;4.00;99.90;;;;;;5046263;28;20120;-72
2024/01/13 00:43:09;;;;;;;5.70;3.22;;;4.00;99.90;;;;;;5033046;28;20049;-72
2024/01/13 00:45:35;;;;;;;6.15;3.38;;;4.00;99.90;;;;;;5008852;28;20100;-72
2024/01/13 00:48:01;;;;;;;8.20;3.70;;;4.00;99.90;;;;;;5005154;28;20092;-71
2024/01/13 00:50:27;;;;;;;6.25;3.28;;;4.00;99.90;;;;;;5005664;28;20044;-71
2024/01/13 00:52:52;;;;;;;5.68;3.63;;;4.00;99.90;;;;;;5007340;28;20030;-71
2024/01/13 00:55:18;;;;;;;7.28;3.78;;;4.00;99.90;;;;;;5020277;28;20033;-71
2024/01/13 00:57:44;;;;;;;9.18;3.25;;;4.00;99.90;;;;;;5021071;28;20091;-72
2024/01/13 01:00:10;;;;;;;6.25;2.70;;;4.00;99.90;;;;;;5007108;28;20863;-73
2024/01/13 01:02:36;;;;;;;15.82;3.40;;;4.00;99.90;;;;;;5012425;28;20044;-72
2024/01/13 01:05:02;;;;;;;8.63;3.42;;;4.00;99.90;;;;;;5020507;28;20659;-72
2024/01/13 01:07:28;;;;;;;6.50;3.38;;;4.00;99.90;;;;;;5030473;28;20104;-73
2024/01/13 01:09:53;;;;;;;6.20;3.08;;;3.90;99.90;;;;;;5015380;28;20133;-72
2024/01/13 01:12:19;;;;;;;7.07;3.50;;;3.90;99.90;;;;;;5004346;28;20477;-72
2024/01/13 01:14:45;;;;;;;9.50;4.05;;;3.90;99.90;;;;;;5023368;28;20037;-72
2024/01/13 01:17:10;;;;;;;8.98;3.80;;;3.90;99.90;;;;;;5023722;28;20021;-73
2024/01/13 01:19:36;;;;;;;11.10;4.53;;;3.90;99.90;;;;;;5005203;28;20057;-72
2024/01/13 01:22:01;;;;;;;10.13;4.63;;;3.90;99.90;;;;;;5015286;28;20063;-72
2024/01/13 01:24:27;;;;;;;8.93;4.30;;;3.90;99.90;;;;;;5018316;28;20441;-73
2024/01/13 01:26:52;;;;;;;13.10;5.72;;;3.90;99.90;;;;;;5024065;28;20076;-72
2024/01/13 01:29:18;;;;;;;10.30;4.78;;;3.90;99.90;;;;;;5023818;28;20044;-72
2024/01/13 01:31:43;;;;;;;10.80;4.85;;;3.90;99.90;;;;;;5024962;28;20493;-72
2024/01/13 01:34:09;;;;;;;10.27;5.00;;;3.90;99.90;;;;;;5025523;28;20037;-73
2024/01/13 01:36:35;;;;;;;10.30;5.13;;;3.90;99.90;;;;;;5024974;28;20045;-73
2024/01/13 01:39:00;;;;;;;15.90;5.63;;;3.90;99.90;;;;;;5035248;28;20383;-73
2024/01/13 01:41:26;;;;;;;11.98;6.22;;;3.90;99.90;;;;;;5044387;28;20040;-72
2024/01/13 01:43:51;;;;;;;14.25;5.38;;;3.90;99.90;;;;;;5017536;28;20045;-73
2024/01/13 01:46:20;;;;;;;14.68;6.25;;;3.90;99.90;;;;;;5028254;28;20096;-72
2024/01/13 01:48:47;;;;;;;14.48;6.32;;;3.90;99.90;;;;;;5024807;28;20073;-73
2024/01/13 01:51:16;;;;;;;13.32;6.18;;;3.90;99.90;;;;;;5027077;28;20092;-72
2024/01/13 01:53:43;;;;;;;12.27;5.87;;;3.90;99.90;;;;;;5016788;28;20049;-72
2024/01/13 01:56:18;;;;;;;14.50;6.30;;;3.90;99.90;;;;;;5024993;28;20128;-72
2024/01/13 01:58:46;;;;;;;16.73;7.40;;;3.90;99.90;;;;;;5024501;28;20044;-71
2024/01/13 02:01:13;;;;;;;16.77;7.25;;;3.90;99.90;;;;;;5024959;28;20034;-72
2024/01/13 02:03:39;;;;;;;15.43;7.53;;;3.90;99.90;;;;;;5028651;28;20118;-72
2024/01/13 02:06:06;;;;;;;15.15;7.22;;;3.90;99.90;;;;;;5008039;28;20049;-72
2024/01/13 02:08:32;;;;;;;16.42;8.27;;;3.90;99.90;;;;;;5030928;28;20033;-73
2024/01/13 02:10:58;;;;;;;13.38;6.85;;;3.90;99.90;;;;;;5009881;28;20095;-73
2024/01/13 02:13:23;;;;;;;16.48;7.85;;;4.00;99.90;;;;;;5007662;28;21230;-71
2024/01/13 02:15:49;;;;;;;15.80;7.07;;;4.00;99.90;;;;;;5014072;28;20040;-73
2024/01/13 02:18:15;;;;;;;16.90;7.40;;;4.00;99.90;;;;;;5025168;28;20037;-71
2024/01/13 02:20:40;;;;;;;19.35;8.05;;;4.00;99.90;;;;;;5027903;28;20044;-73
2024/01/13 02:23:06;;;;;;;21.63;8.60;;;4.00;99.90;;;;;;5027150;28;20087;-72
2024/01/13 02:25:31;;;;;;;15.32;7.72;;;4.00;99.90;;;;;;5019608;28;20425;-72
2024/01/13 02:27:57;;;;;;;16.65;7.82;;;4.00;99.90;;;;;;5022789;28;20041;-72
2024/01/13 02:30:23;;;;;;;16.65;7.88;;;4.00;99.90;;;;;;5026178;28;20033;-72
2024/01/13 02:32:48;;;;;;;15.60;7.30;;;4.00;99.90;;;;;;5026842;28;20116;-72
2024/01/13 02:35:14;;;;;;;13.68;6.50;;;4.00;99.90;;;;;;5026392;28;20025;-71
2024/01/13 02:37:40;;;;;;;14.48;6.57;;;4.00;99.90;;;;;;5026439;28;20038;-72
2024/01/13 02:40:09;;;;;;;14.30;6.65;;;4.00;99.90;;;;;;5046011;28;20500;-72
2024/01/13 02:42:35;;;;;;;13.88;5.88;;;4.00;99.90;;;;;;5047671;28;20033;-73
2024/01/13 02:45:00;;;;;;;17.27;7.78;;;4.00;99.90;;;;;;5049127;28;20059;-73
2024/01/13 02:47:39;;;;;;;16.17;7.28;;;4.00;99.90;;;;;;5031322;28;20063;-72
2024/01/13 02:50:06;;;;;;;13.18;6.65;;;4.00;99.90;;;;;;5026959;28;20040;-73
2024/01/13 02:52:31;;;;;;;16.85;7.53;;;4.00;99.90;;;;;;5019746;28;20033;-72
2024/01/13 02:54:57;;;;;;;15.18;7.05;;;4.00;99.90;;;;;;5009527;28;20045;-72
2024/01/13 02:57:22;;;;;;;14.38;6.55;;;4.00;99.90;;;;;;5022028;28;20037;-72
2024/01/13 02:59:48;;;;;;;13.60;7.15;;;4.00;99.90;;;;;;5026605;28;20037;-72
2024/01/13 03:02:13;;;;;;;18.88;7.65;;;4.00;99.90;;;;;;5027631;28;20520;-73
2024/01/13 03:04:39;;;;;;;14.23;7.07;;;4.00;99.90;;;;;;5027420;28;20041;-72
2024/01/13 03:07:04;;;;;;;15.65;7.68;;;4.00;99.90;;;;;;5029886;28;20025;-73
2024/01/13 03:09:30;;;;;;;16.23;7.95;;;4.00;99.90;;;;;;5046565;28;20029;-73
2024/01/13 03:11:56;;;;;;;14.98;7.50;;;4.00;99.90;;;;;;5037284;28;20177;-73
2024/01/13 03:14:21;;;;;;;14.95;7.65;;;4.00;99.90;;;;;;5026013;28;20107;-72
2024/01/13 03:16:47;;;;;;;19.23;8.13;;;4.00;99.90;;;;;;5027286;28;20049;-73
2024/01/13 03:19:13;;;;;;;17.40;7.82;;;4.00;99.90;;;;;;5020461;28;20034;-72
2024/01/13 03:21:39;;;;;;;19.67;8.80;;;4.00;99.90;;;;;;5007435;28;20030;-72
2024/01/13 03:24:04;;;;;;;17.38;7.25;;;4.00;99.90;;;;;;5011530;28;20044;-74
2024/01/13 03:26:30;;;;;;;19.30;8.13;;;4.00;99.90;;;;;;5007029;28;20061;-73
2024/01/13 03:28:56;;;;;;;15.02;6.90;;;4.00;99.90;;;;;;5022763;28;20038;-71
2024/01/13 03:31:21;;;;;;;20.52;8.05;;;4.00;99.90;;;;;;5010658;28;20041;-72
2024/01/13 03:33:47;;;;;;;17.13;7.57;;;4.00;99.90;;;;;;5023154;28;20048;-73
2024/01/13 03:36:12;;;;;;;14.63;8.50;;;4.00;99.90;;;;;;5026980;28;20347;-72
2024/01/13 03:38:39;;;;;;;16.25;8.13;;;4.00;99.90;;;;;;5026705;28;20037;-71
2024/01/13 03:41:04;;;;;;;18.98;7.60;;;3.90;99.90;;;;;;5027737;28;20494;-73
2024/01/13 03:43:30;;;;;;;15.65;7.18;;;3.90;99.90;;;;;;5011715;28;20034;-72
2024/01/13 03:45:56;;;;;;;14.18;7.05;;;3.90;99.90;;;;;;5026515;28;20228;-73
2024/01/13 03:48:21;;;;;;;14.60;6.68;;;3.90;99.90;;;;;;5006712;28;20084;-73
2024/01/13 03:50:47;;;;;;;13.88;6.47;;;3.90;99.90;;;;;;5020543;28;20072;-71
2024/01/13 03:53:12;;;;;;;15.40;7.35;;;3.80;99.90;;;;;;5017084;28;20116;-72
2024/01/13 03:55:38;;;;;;;13.25;6.60;;;3.90;99.90;;;;;;5026340;28;20038;-72
2024/01/13 03:58:04;;;;;;;16.92;6.38;;;3.90;99.90;;;;;;5028129;28;20029;-72
2024/01/13 04:00:29;;;;;;;14.23;6.03;;;4.00;99.90;;;;;;5014939;28;20041;-72
2024/01/13 04:02:56;;;;;;;14.15;6.28;;;4.00;99.90;;;;;;5006736;28;20125;-73
2024/01/13 04:05:21;;;;;;;14.55;6.38;;;4.00;99.90;;;;;;5005200;28;20459;-72
2024/01/13 04:07:47;;;;;;;15.52;7.40;;;4.00;99.90;;;;;;5022750;28;20064;-72
2024/01/13 04:10:12;;;;;;;16.75;7.28;;;4.00;99.90;;;;;;5026127;28;20041;-72
2024/01/13 04:12:39;;;;;;;13.02;6.47;;;4.00;99.90;;;;;;5025861;28;20033;-73
2024/01/13 04:15:05;;;;;;;15.85;7.13;;;4.00;99.90;;;;;;5025132;28;20033;-72
2024/01/13 04:17:31;;;;;;;14.02;6.63;;;4.00;99.90;;;;;;5027064;28;20021;-72
2024/01/13 04:19:56;;;;;;;15.85;7.45;;;4.00;99.90;;;;;;5025481;28;20128;-73
2024/01/13 04:22:22;;;;;;;14.23;6.72;;;4.00;99.90;;;;;;5025691;28;20457;-72
2024/01/13 04:24:48;;;;;;;14.50;6.07;;;4.00;99.90;;;;;;5026172;28;20037;-73
2024/01/13 04:27:13;;;;;;;12.50;6.15;;;4.00;99.90;;;;;;5026301;28;20033;-71
2024/01/13 04:29:39;;;;;;;14.90;6.80;;;4.00;99.90;;;;;;5025420;28;20049;-73
2024/01/13 04:32:05;;;;;;;15.90;5.97;;;4.00;99.90;;;;;;5027176;28;20025;-72
2024/01/13 04:34:30;;;;;;;16.75;6.97;;;4.00;99.90;;;;;;5025049;28;20044;-72
2024/01/13 04:36:56;;;;;;;16.10;7.25;;;4.00;99.90;;;;;;5014347;28;20034;-72
2024/01/13 04:39:22;;;;;;;16.70;6.53;;;4.00;99.90;;;;;;5028952;28;20033;-73
2024/01/13 04:41:48;;;;;;;16.55;6.55;;;4.00;99.90;;;;;;5031079;28;20030;-72
2024/01/13 04:44:13;;;;;;;16.00;6.28;;;4.00;99.90;;;;;;5006307;28;20069;-72
2024/01/13 04:46:39;;;;;;;16.15;7.43;;;4.00;99.90;;;;;;5018994;28;20033;-72
2024/01/13 04:49:04;;;;;;;13.93;6.43;;;4.00;99.90;;;;;;5007737;28;20038;-71
2024/01/13 04:51:30;;;;;;;13.40;6.10;;;4.00;99.90;;;;;;5009147;28;20037;-73
2024/01/13 04:53:56;;;;;;;15.27;6.18;;;4.00;99.90;;;;;;5016619;28;20038;-72
2024/01/13 04:56:22;;;;;;;14.85;6.80;;;4.00;99.90;;;;;;5007914;28;20072;-72
2024/01/13 04:58:49;;;;;;;17.38;6.60;;;4.00;99.90;;;;;;5023493;28;20390;-72
2024/01/13 05:01:15;;;;;;;11.18;5.50;;;4.00;99.90;;;;;;5005386;28;20044;-72
2024/01/13 05:03:41;;;;;;;15.50;6.18;;;4.00;99.90;;;;;;5025124;28;20037;-73
2024/01/13 05:06:07;;;;;;;16.73;6.95;;;4.00;99.90;;;;;;5024560;28;20045;-72
2024/01/13 05:08:33;;;;;;;16.30;6.55;;;4.10;99.90;;;;;;5042564;28;20412;-72
2024/01/13 05:10:59;;;;;;;13.30;5.50;;;4.00;99.90;;;;;;5046038;28;20574;-72
2024/01/13 05:13:24;;;;;;;13.95;6.15;;;4.10;99.90;;;;;;5043746;28;20091;-72
2024/01/13 05:15:50;;;;;;;12.07;5.70;;;4.10;99.90;;;;;;5046436;28;20443;-72
2024/01/13 05:18:15;;;;;;;12.32;6.10;;;4.10;99.90;;;;;;5025693;28;20120;-71
2024/01/13 05:20:41;;;;;;;12.82;5.47;;;4.10;99.90;;;;;;5023796;28;20041;-72
2024/01/13 05:23:07;;;;;;;15.30;6.82;;;4.10;99.90;;;;;;5025677;28;20108;-73
2024/01/13 05:25:33;;;;;;;15.30;6.07;;;4.10;99.90;;;;;;5025319;28;20041;-72
2024/01/13 05:27:58;;;;;;;11.63;5.65;;;4.10;99.90;;;;;;5026438;28;20088;-72
2024/01/13 05:30:26;;;;;;;15.02;6.22;;;4.10;99.90;;;;;;5023646;28;20498;-72
2024/01/13 05:32:52;;;;;;;11.52;5.75;;;4.10;99.90;;;;;;5026494;28;20025;-72
2024/01/13 05:35:17;;;;;;;12.18;5.68;;;4.10;99.90;;;;;;5012140;28;20405;-73
2024/01/13 05:37:43;;;;;;;12.32;5.18;;;4.20;99.90;;;;;;5025022;28;20025;-72
2024/01/13 05:40:08;;;;;;;14.40;5.60;;;4.20;99.90;;;;;;5033053;28;20132;-72
2024/01/13 05:42:34;;;;;;;10.95;4.32;;;4.20;99.90;;;;;;5007571;28;20034;-72
2024/01/13 05:45:00;;;;;;;16.30;5.82;;;4.20;99.90;;;;;;5023056;28;20379;-72
2024/01/13 05:47:25;;;;;;;12.40;5.53;;;4.20;99.90;;;;;;5024079;28;20057;-72
2024/01/13 05:49:52;;;;;;;9.98;4.45;;;4.20;99.90;;;;;;5024664;28;20400;-72
2024/01/13 05:52:17;;;;;;;10.88;4.97;;;4.20;99.90;;;;;;5006287;28;20034;-73
2024/01/13 05:54:43;;;;;;;11.82;4.70;;;4.20;99.90;;;;;;5023848;28;20398;-72
2024/01/13 05:57:09;;;;;;;10.05;4.93;;;4.20;99.90;;;;;;5023995;28;20041;-72
2024/01/13 05:59:34;;;;;;;8.57;4.68;;;4.30;99.90;;;;;;5016215;28;20038;-72
2024/01/13 06:02:00;;;;;;;9.13;4.20;;;4.20;99.90;;;;;;5012367;28;20552;-72
2024/01/13 06:04:25;;;;;;;11.73;4.43;;;4.30;99.90;;;;;;5004188;28;20060;-72
2024/01/13 06:06:51;;;;;;;10.30;4.10;;;4.30;99.90;;;;;;5026635;28;20030;-72
2024/01/13 06:09:16;;;;;;;9.85;4.30;;;4.20;99.90;;;;;;5017132;28;20112;-73
2024/01/13 06:11:42;;;;;;;9.05;4.07;;;4.30;99.90;;;;;;5024324;28;20131;-72
2024/01/13 06:14:08;;;;;;;7.97;3.65;;;4.30;99.90;;;;;;5024777;28;20124;-73
2024/01/13 06:16:33;;;;;;;12.45;4.05;;;4.30;99.90;;;;;;5024596;28;20508;-73
2024/01/13 06:19:01;;;;;;;11.88;4.30;;;4.30;99.90;;;;;;5024496;28;20051;-74
2024/01/13 06:21:27;;;;;;;13.70;5.07;;;4.30;99.90;;;;;;5025098;28;20056;-72
2024/01/13 06:23:52;;;;;;;11.00;4.82;;;4.20;99.90;;;;;;5025984;28;20094;-71
2024/01/13 06:26:18;;;;;;;8.80;4.30;;;4.20;99.90;;;;;;5021059;28;20044;-72
2024/01/13 06:28:43;;;;;;;8.07;3.88;;;4.20;99.90;;;;;;5014875;28;20067;-72
2024/01/13 06:31:09;;;;;;;8.30;3.45;;;4.20;99.90;;;;;;5027077;28;20073;-71
2024/01/13 06:33:35;;;;;;;6.15;3.45;;;4.20;99.90;;;;;;5029064;28;20048;-71
2024/01/13 06:36:00;;;;;;;6.40;2.92;;;4.20;99.90;;;;;;5015248;28;20476;-72
2024/01/13 06:38:26;;;;;;;7.60;2.60;;;4.30;99.90;;;;;;5012429;28;20036;-72
2024/01/13 06:40:51;;;;;;;7.13;2.83;;;4.30;99.90;;;;;;5027141;28;20099;-71
2024/01/13 06:43:17;;;;;;;10.82;2.03;;;4.30;99.90;;;;;;5020556;28;20066;-73
2024/01/13 06:45:42;;;;;;;4.55;1.45;;;4.30;99.90;;;;;;5018493;28;20691;-72
2024/01/13 06:48:08;;;;;;;1.73;1.00;;;4.30;99.90;;;;;;5020727;28;20037;-73
2024/01/13 06:50:33;;;;;;;2.70;0.98;;;4.30;99.90;;;;;;5022190;28;20065;-72
2024/01/13 06:52:59;;;;;;;2.22;1.30;;;4.40;99.90;;;;;;5028013;28;20034;-72
2024/01/13 06:55:25;;;;;;;2.55;1.65;;;4.40;99.90;;;;;;5028472;28;21473;-72
2024/01/13 06:57:51;;;;;;;4.60;1.08;;;4.40;99.90;;;;;;5028644;28;20063;-72
2024/01/13 07:00:18;;;;;;;3.33;1.58;;;4.40;99.90;;;;;;5026726;28;20120;-72
2024/01/13 07:02:44;;;;;;;2.50;1.40;;;4.50;99.90;;;;;;5027349;28;20148;-72
2024/01/13 07:05:10;;;;;;;7.15;2.63;;;4.50;99.90;;;;;;5022211;28;20137;-71
2024/01/13 07:07:36;;;;;;;4.20;1.80;;;4.40;99.90;;;;;;5036792;28;20040;-73
2024/01/13 07:10:04;;;;;;;5.38;1.90;;;4.50;99.90;;;;;;5045899;28;20033;-72
2024/01/13 07:12:30;;;;;;;8.93;2.30;;;4.40;99.90;;;;;;5036750;28;20041;-72
2024/01/13 07:14:56;;;;;;;6.93;2.40;;;4.40;99.90;;;;;;5018557;28;20030;-72
2024/01/13 07:17:21;;;;;;;6.57;2.50;;;4.40;99.90;;;;;;5008052;28;20030;-72
2024/01/13 07:19:47;;;;;;;5.57;2.70;;;4.40;99.90;;;;;;5006919;28;20038;-72
2024/01/13 07:22:13;;;;;;;8.40;2.85;;;4.40;99.90;;;;;;5025630;28;20061;-73
2024/01/13 07:24:38;;;;;;;8.57;3.50;;;4.40;99.90;;;;;;5008525;28;20080;-73
2024/01/13 07:27:04;;;;;;;7.32;3.13;;;4.40;99.90;;;;;;5009561;28;20132;-72
2024/01/13 07:29:30;;;;;;;5.22;2.35;;;4.50;99.90;;;;;;5014560;28;20104;-73
2024/01/13 07:31:56;;;;;;;6.28;2.47;;;4.40;99.90;;;;;;5015724;28;20033;-72
2024/01/13 07:34:21;;;;;;;6.28;2.42;;;4.50;99.90;;;;;;5014805;28;20052;-72
2024/01/13 07:36:47;;;;;;;4.13;2.33;;;4.40;99.90;;;;;;5007414;28;20034;-71
2024/01/13 07:39:13;;;;;;;3.67;1.55;;;4.50;99.90;;;;;;5029170;28;20033;-72
2024/01/13 07:41:39;;;;;;;5.70;1.95;;;4.40;99.90;;;;;;5047173;28;20039;-69
2024/01/13 07:44:05;;;;;;;4.38;1.58;;;4.40;99.90;;;;;;5031249;28;20076;-72
2024/01/13 07:46:31;;;;;;;4.45;1.38;;;4.40;99.90;;;;;;5025914;28;20040;-73
2024/01/13 07:48:57;;;;;;;3.15;1.38;;;4.40;99.90;;;;;;5026701;28;20394;-72
2024/01/13 07:51:22;;;;;;;2.55;1.33;;;4.50;99.90;;;;;;5020548;28;20052;-73
2024/01/13 07:53:48;;;;;;;4.03;1.25;;;4.40;99.90;;;;;;5025318;28;20433;-72
2024/01/13 07:56:13;;;;;;;2.83;1.30;;;4.50;99.90;;;;;;5024761;28;20033;-72
2024/01/13 07:58:39;;;;;;;2.22;1.27;;;4.50;99.90;;;;;;5018624;28;20045;-72
2024/01/13 08:01:05;;;;;;;3.63;1.42;;;4.50;99.90;;;;;;5010761;28;20041;-72
2024/01/13 08:03:30;;;;;;;4.50;1.80;;;4.50;99.90;;;;;;5008580;28;20165;-73
2024/01/13 08:05:56;;;;;;;3.47;1.60;;;4.50;99.90;;;;;;5025844;28;20083;-72
2024/01/13 08:08:21;;;;;;;7.63;2.35;;;4.50;99.90;;;;;;5038112;28;20037;-72
2024/01/13 08:10:47;;;;;;;2.95;1.27;;;4.50;99.90;;;;;;5044738;28;20051;-73
2024/01/13 08:13:14;;;;;;;10.32;2.53;;;4.60;99.90;;;;;;5042008;28;20040;-74
2024/01/13 08:15:40;;;;;;;3.65;1.58;;;4.70;99.90;;;;;;5014152;28;20060;-72
2024/01/13 08:18:05;;;;;;;3.88;1.88;;;4.70;99.90;;;;;;5028892;28;20493;-72
2024/01/13 08:20:31;;;;;;;5.35;1.80;;;4.70;99.90;;;;;;5007144;28;20103;-71
2024/01/13 08:22:57;;;;;;;3.78;1.77;;;4.70;99.90;;;;;;5015873;28;20041;-71
2024/01/13 08:25:23;;;;;;;4.30;2.22;;;4.70;99.90;;;;;;5023459;28;20049;-72
2024/01/13 08:27:50;;;;;;;5.63;2.50;;;4.60;99.90;;;;;;5005314;28;20034;-72
2024/01/13 08:30:16;;;;;;;7.00;3.13;;;4.70;99.90;;;;;;5007575;28;20578;-72
2024/01/13 08:32:41;;;;;;;5.82;2.20;;;4.70;99.90;;;;;;5024016;28;20034;-72
2024/01/13 08:35:07;;;;;;;4.93;2.72;;;4.70;99.90;;;;;;5025370;28;20078;-73
2024/01/13 08:37:33;;;;;;;7.88;2.25;;;4.70;99.90;;;;;;5018691;28;20140;-72
2024/01/13 08:39:58;;;;;;;6.60;2.10;;;4.70;99.90;;;;;;5023759;28;20064;-73
2024/01/13 08:42:24;;;;;;;5.25;2.28;;;4.70;99.90;;;;;;5024733;28;20274;-73
2024/01/13 08:44:49;;;;;;;5.70;2.55;;;4.60;99.90;;;;;;5024646;28;20079;-72
2024/01/13 08:47:15;;;;;;;7.57;2.42;;;4.60;99.90;;;;;;5017404;28;20030;-72
2024/01/13 08:49:41;;;;;;;7.47;2.78;;;4.60;99.90;;;;;;5019695;28;20040;-73
2024/01/13 08:52:09;;;;;;;6.60;2.25;;;4.60;99.90;;;;;;5004753;28;20053;-73
2024/01/13 08:54:36;;;;;;;4.00;2.30;;;4.50;99.90;;;;;;5010576;28;20116;-72
2024/01/13 08:57:05;;;;;;;5.55;2.08;;;4.50;99.90;;;;;;5024132;28;20036;-72
2024/01/13 08:59:33;;;;;;;4.90;2.65;;;4.50;99.90;;;;;;5023110;28;20066;-72
2024/01/13 09:02:00;;;;;;;5.20;2.38;;;4.50;99.90;;;;;;5025668;28;20080;-72
2024/01/13 09:04:25;;;;;;;7.43;2.97;;;4.50;99.90;;;;;;5018375;28;20042;-73
2024/01/13 09:06:51;;;;;;;6.93;2.55;;;4.50;99.90;;;;;;5007800;28;20394;-72
2024/01/13 09:09:16;;;;;;;4.80;2.38;;;4.50;99.90;;;;;;5043738;28;20051;-72
2024/01/13 09:11:42;;;;;;;5.13;2.58;;;4.50;99.90;;;;;;5025377;28;20041;-72
2024/01/13 09:14:08;;;;;;;8.60;2.97;;;4.50;99.90;;;;;;5013257;28;20021;-72
2024/01/13 09:16:33;;;;;;;6.18;2.97;;;4.50;99.90;;;;;;5023980;28;20393;-71
2024/01/13 09:18:59;;;;;;;5.70;3.25;;;4.50;99.90;;;;;;5024524;28;20040;-73
2024/01/13 09:21:24;;;;;;;7.93;3.00;;;4.60;99.90;;;;;;5006478;28;20041;-72
2024/01/13 09:23:51;;;;;;;8.38;3.05;;;4.60;99.90;;;;;;5005015;28;20638;-73
2024/01/13 09:26:17;;;;;;;5.90;2.65;;;4.50;99.90;;;;;;5015006;28;20096;-72
2024/01/13 09:28:43;;;;;;;5.82;3.35;;;4.50;99.90;;;;;;5015922;28;20034;-72
2024/01/13 09:31:09;;;;;;;7.05;3.20;;;4.50;99.90;;;;;;5022998;28;20053;-72
2024/01/13 09:33:34;;;;;;;8.25;3.60;;;4.50;99.90;;;;;;5010046;28;21676;-72
2024/01/13 09:36:00;;;;;;;7.47;3.25;;;4.50;99.90;;;;;;5024123;28;20115;-72
2024/01/13 09:38:26;;;;;;;10.15;4.07;;;4.60;99.90;;;;;;5025862;28;20075;-73
2024/01/13 09:40:51;;;;;;;9.43;4.35;;;4.60;99.90;;;;;;5026493;28;20041;-73
2024/01/13 09:43:51;;;;;;;15.18;5.65;;;4.60;99.90;;;;;;5018481;28;20128;-72
2024/01/13 09:46:17;;;;;;;13.20;5.57;;;4.70;99.90;;;;;;5011394;28;20042;-73
2024/01/13 09:48:47;;;;;;;12.77;5.88;;;4.70;99.90;;;;;;5024090;28;20041;-72
2024/01/13 09:51:13;;;;;;;15.75;6.03;;;4.70;99.90;;;;;;5023113;28;20037;-72
2024/01/13 09:53:47;;;;;;;17.50;7.40;;;4.70;99.90;;;;;;5023783;28;20037;-72
2024/01/13 09:56:29;;;;;;;14.23;6.88;;;4.70;99.90;;;;;;5018859;28;20037;-72
2024/01/13 09:58:54;;;;;;;16.15;6.97;;;4.70;99.90;;;;;;5025014;28;20033;-72
2024/01/13 10:01:20;;;;;;;16.38;7.30;;;4.70;99.90;;;;;;5021909;28;20029;-72
2024/01/13 10:03:46;;;;;;;17.33;7.28;;;4.70;99.90;;;;;;5026372;28;20046;-71
2024/01/13 10:06:12;;;;;;;14.50;6.75;;;4.70;99.90;;;;;;5023132;28;20058;-72
2024/01/13 10:08:38;;;;;;;17.73;7.82;;;4.70;99.90;;;;;;5032827;28;20046;-72
2024/01/13 10:11:03;;;;;;;18.30;7.50;;;4.70;99.90;;;;;;5028107;28;20048;-72
2024/01/13 10:13:32;;;;;;;18.10;7.55;;;4.80;99.90;;;;;;5020435;28;20045;-72
2024/01/13 10:15:57;;;;;;;17.90;7.32;;;4.70;99.90;;;;;;5010480;28;20147;-72
2024/01/13 10:18:24;;;;;;;16.42;7.90;;;4.70;99.90;;;;;;5017720;28;20493;-73
2024/01/13 10:20:50;;;;;;;18.85;7.53;;;4.80;99.90;;;;;;5026551;28;20029;-73
2024/01/13 10:23:16;;;;;;;23.38;8.13;;;4.80;99.90;;;;;;5024516;28;20038;-72
2024/01/13 10:25:41;;;;;;;17.63;7.40;;;4.80;99.90;;;;;;5020166;28;20124;-72
2024/01/13 10:28:07;;;;;;;15.50;7.60;;;4.80;99.90;;;;;;5026745;28;20535;-72
2024/01/13 10:30:33;;;;;;;15.35;7.30;;;4.80;99.90;;;;;;5026858;28;20052;-73
2024/01/13 10:32:59;;;;;;;14.93;7.30;;;4.80;99.90;;;;;;5027677;28;20029;-73
2024/01/13 10:35:27;;;;;;;18.08;8.60;;;4.80;99.90;;;;;;5026510;28;20037;-72
2024/01/13 10:37:57;;;;;;;22.15;8.65;;;4.70;99.90;;;;;;5028691;28;20026;-72
2024/01/13 10:40:23;;;;;;;17.27;8.20;;;4.70;99.90;;;;;;5017269;28;20022;-72
2024/01/13 10:42:55;;;;;;;17.92;8.38;;;4.80;99.90;;;;;;5029692;28;20908;-73
2024/01/13 10:45:25;;;;;;;20.42;9.73;;;4.70;99.90;;;;;;5026112;28;20129;-72
2024/01/13 10:48:02;;;;;;;21.10;8.97;;;4.70;99.90;;;;;;5008034;28;20108;-74
2024/01/13 10:50:30;;;;;;;22.35;9.98;;;4.80;99.90;;;;;;5017493;28;20034;-72
2024/01/13 10:53:20;;;;;;;20.90;8.25;;;4.80;99.90;;;;;;5027887;28;20037;-74
2024/01/13 10:55:47;;;;;;;20.38;8.77;;;4.80;99.90;;;;;;5007481;28;20127;-73
2024/01/13 10:58:15;;;;;;;21.83;8.10;;;4.80;99.90;;;;;;5010348;28;20037;-73
2024/01/13 11:00:41;;;;;;;17.58;8.93;;;4.80;99.90;;;;;;5022952;28;20053;-73
2024/01/13 11:03:08;;;;;;;17.17;7.90;;;4.80;99.90;;;;;;5006468;28;20057;-72
2024/01/13 11:05:37;;;;;;;20.20;9.45;;;4.80;99.90;;;;;;5023140;28;20037;-73
2024/01/13 11:08:04;;;;;;;22.83;9.63;;;4.80;99.90;;;;;;5038043;28;20060;-73
2024/01/13 11:10:33;;;;;;;19.85;9.05;;;4.80;99.90;;;;;;5030801;28;20147;-73
2024/01/13 11:13:28;;;;;;;22.05;8.70;;;4.80;99.90;;;;;;5011225;28;20093;-72
2024/01/13 11:16:10;;;;;;;21.92;9.77;;;4.80;99.90;;;;;;5005548;28;20099;-73
2024/01/13 11:18:44;;;;;;;29.70;10.73;;;4.80;99.90;;;;;;5007370;28;20038;-72
2024/01/13 11:21:11;;;;;;;22.10;11.07;;;4.80;99.90;;;;;;5004629;28;20054;-72
2024/01/13 11:23:56;;;;;;;24.85;10.60;;;4.90;99.90;;;;;;5016736;28;20556;-73
2024/01/13 11:26:31;;;;;;;27.48;11.73;;;4.90;99.90;;;;;;5005872;28;20045;-73
2024/01/13 11:28:57;;;;;;;27.52;11.15;;;4.90;99.90;;;;;;5009975;28;20660;-72
2024/01/13 11:31:29;;;;;;;27.25;11.48;;;4.90;99.90;;;;;;5025300;28;20083;-73
2024/01/13 11:33:59;;;;;;;25.92;10.90;;;4.90;99.90;;;;;;5026156;28;20580;-72
2024/01/13 11:36:31;;;;;;;29.83;12.57;;;4.90;99.90;;;;;;5013094;28;20566;-72
2024/01/13 11:38:58;;;;;;;27.98;11.30;;;4.80;99.90;;;;;;5031849;28;20060;-72
2024/01/13 11:41:46;;;;;;;25.17;11.13;;;4.90;99.90;;;;;;5019037;28;20486;-73
2024/01/13 11:44:20;;;;;;;26.25;11.25;;;4.90;99.90;;;;;;5019072;28;20567;-72
2024/01/13 11:46:57;;;;;;;24.42;11.20;;;4.90;99.90;;;;;;5024906;28;20040;-73
2024/01/13 11:49:33;;;;;;;26.35;10.52;;;5.00;99.90;;;;;;5015146;28;20137;-72
2024/01/13 11:52:04;;;;;;;25.23;10.93;;;5.00;99.90;;;;;;5006028;28;20466;-72
2024/01/13 11:54:31;;;;;;;23.85;10.65;;;5.10;99.90;;;;;;5004537;28;20057;-73
2024/01/13 11:56:58;;;;;;;29.33;11.48;;;5.10;99.90;;;;;;5005209;28;20297;-73
2024/01/13 11:59:25;;;;;;;27.13;11.60;;;5.10;99.90;;;;;;5009553;28;20033;-73
2024/01/13 12:01:52;;;;;;;28.05;10.60;;;5.10;99.90;;;;;;5023013;28;20410;-73
2024/01/13 12:04:18;;;;;;;27.92;12.10;;;5.20;99.90;;;;;;5017241;28;20520;-73
2024/01/13 12:06:48;;;;;;;25.80;11.55;;;5.20;99.90;;;;;;5025728;28;20117;-73
2024/01/13 12:09:15;;;;;;;;;;;5.20;99.90;;;;;;5010665;28;20038;-73
2024/01/13 12:11:41;;;;;;;27.73;10.82;;;5.20;99.90;;;;;;5024381;28;19920;-72
2024/01/13 12:14:07;;;;;;;27.90;12.80;;;5.20;99.90;;;;;;5017100;28;20033;-73
2024/01/13 12:16:33;;;;;;;27.90;11.32;;;5.10;99.90;;;;;;5013163;28;20428;-73
2024/01/13 12:18:59;;;;;;;25.95;11.38;;;5.10;99.90;;;;;;5018591;28;20677;-74
2024/01/13 12:21:25;;;;;;;26.15;11.68;;;5.10;99.90;;;;;;5013267;28;20041;-73
2024/01/13 12:23:51;;;;;;;32.17;12.10;;;5.10;99.90;;;;;;5019410;28;20038;-73
2024/01/13 12:26:16;;;;;;;24.60;10.93;;;5.10;99.90;;;;;;5018764;28;20037;-73
2024/01/13 12:28:43;;;;;;;23.35;10.93;;;5.10;99.90;;;;;;5014237;28;20045;-72
2024/01/13 12:31:10;;;;;;;29.27;11.00;;;5.10;99.90;;;;;;5018248;28;20045;-73
2024/01/13 12:33:36;;;;;;;23.05;10.25;;;5.10;99.90;;;;;;5025960;28;20041;-72
2024/01/13 12:36:03;;;;;;;21.63;10.30;;;5.10;99.90;;;;;;5016676;28;20043;-73
2024/01/13 12:38:30;;;;;;;31.98;11.40;;;5.10;99.90;;;;;;5029839;28;20033;-73
2024/01/13 12:40:59;;;;;;;26.00;10.82;;;5.10;99.90;;;;;;5027777;28;20038;-73
2024/01/13 12:43:26;;;;;;;25.48;10.65;;;5.10;99.90;;;;;;5021387;28;20509;-73
2024/01/13 12:45:52;;;;;;;26.88;11.75;;;5.10;99.90;;;;;;5005873;28;20034;-73
2024/01/13 12:48:19;;;;;;;30.60;11.90;;;5.10;99.90;;;;;;5004428;28;20030;-72